createdAt,value
2017-12-23T00:00:13.453Z,0
2017-12-23T00:00:54.036Z,0
2017-12-23T00:01:34.610Z,0
2017-12-23T00:02:15.243Z,0
2017-12-23T00:02:55.828Z,0
2017-12-23T00:03:36.420Z,0
2017-12-23T00:04:16.979Z,0
2017-12-23T00:04:57.552Z,0
2017-12-23T00:05:38.136Z,0
2017-12-23T00:06:18.729Z,0
2017-12-23T00:06:59.364Z,0
2017-12-23T00:07:39.953Z,0
2017-12-23T00:08:20.547Z,0
2017-12-23T00:09:01.146Z,0
2017-12-23T00:09:41.725Z,0
2017-12-23T00:10:22.314Z,0
2017-12-23T00:11:02.878Z,0
2017-12-23T00:11:43.472Z,0
2017-12-23T00:12:24.050Z,0
2017-12-23T00:13:04.625Z,0
2017-12-23T00:13:45.205Z,0
2017-12-23T00:14:25.813Z,0
2017-12-23T00:15:06.371Z,0
2017-12-23T00:15:46.960Z,0
2017-12-23T00:16:27.537Z,0
2017-12-23T00:17:08.100Z,0
2017-12-23T00:17:48.674Z,0
2017-12-23T00:18:29.254Z,0
2017-12-23T00:19:09.832Z,0
2017-12-23T00:19:50.409Z,0
2017-12-23T00:20:30.992Z,0
2017-12-23T00:21:11.551Z,0
2017-12-23T00:21:52.137Z,0
2017-12-23T00:22:32.762Z,0
2017-12-23T00:23:13.372Z,0
2017-12-23T00:23:53.964Z,0
2017-12-23T00:24:34.530Z,0
2017-12-23T00:25:15.110Z,0
2017-12-23T00:25:55.665Z,0
2017-12-23T00:26:36.247Z,0
2017-12-23T00:27:16.822Z,0
2017-12-23T00:27:57.425Z,0
2017-12-23T00:28:38.002Z,0
2017-12-23T00:29:18.586Z,0
2017-12-23T00:29:59.146Z,0
2017-12-23T00:30:39.718Z,0
2017-12-23T00:31:20.284Z,0
2017-12-23T00:32:00.875Z,0
2017-12-23T00:32:41.444Z,0
2017-12-23T00:33:22.033Z,0
2017-12-23T00:34:02.614Z,0
2017-12-23T00:34:43.175Z,0
2017-12-23T00:35:23.756Z,0
2017-12-23T00:36:04.351Z,0
2017-12-23T00:36:44.909Z,0
2017-12-23T00:37:25.506Z,0
2017-12-23T00:38:06.088Z,0
2017-12-23T00:38:46.697Z,0
2017-12-23T00:39:27.260Z,0
2017-12-23T00:40:07.828Z,0
2017-12-23T00:40:48.412Z,0
2017-12-23T00:41:28.983Z,0
2017-12-23T00:42:09.591Z,0
2017-12-23T00:42:50.196Z,0
2017-12-23T00:43:30.802Z,0
2017-12-23T00:44:11.383Z,0
2017-12-23T00:44:51.965Z,0
2017-12-23T00:45:32.543Z,0
2017-12-23T00:46:13.110Z,0
2017-12-23T00:46:53.688Z,0
2017-12-23T00:47:34.252Z,0
2017-12-23T00:48:14.848Z,0
2017-12-23T00:48:55.413Z,0
2017-12-23T00:49:35.986Z,0
2017-12-23T00:50:16.575Z,0
2017-12-23T00:50:57.155Z,0
2017-12-23T00:51:37.753Z,0
2017-12-23T00:52:18.355Z,0
2017-12-23T00:52:58.929Z,0
2017-12-23T00:53:39.508Z,0
2017-12-23T00:54:20.084Z,0
2017-12-23T00:55:00.644Z,0
2017-12-23T00:55:41.215Z,0
2017-12-23T00:56:21.773Z,0
2017-12-23T00:57:02.361Z,0
2017-12-23T00:57:42.942Z,0
2017-12-23T00:58:23.516Z,0
2017-12-23T00:59:04.104Z,0
2017-12-23T00:59:44.692Z,0
2017-12-23T01:00:25.289Z,0
2017-12-23T01:01:05.916Z,0
2017-12-23T01:01:46.485Z,0
2017-12-23T01:02:27.095Z,0
2017-12-23T01:03:07.704Z,0
2017-12-23T01:03:48.298Z,0
2017-12-23T01:04:28.885Z,0
2017-12-23T01:05:09.462Z,0
2017-12-23T01:05:50.030Z,0
2017-12-23T01:06:30.627Z,0
2017-12-23T01:07:11.216Z,0
2017-12-23T01:07:51.812Z,0
2017-12-23T01:08:32.391Z,0
2017-12-23T01:09:12.957Z,0
2017-12-23T01:09:53.570Z,0
2017-12-23T01:10:34.154Z,0
2017-12-23T01:11:14.725Z,0
2017-12-23T01:11:55.339Z,0
2017-12-23T01:12:35.916Z,0
2017-12-23T01:13:16.483Z,0
2017-12-23T01:13:57.050Z,0
2017-12-23T01:14:37.627Z,0
2017-12-23T01:15:18.190Z,0
2017-12-23T01:15:58.756Z,0
2017-12-23T01:16:39.341Z,0
2017-12-23T01:17:19.906Z,0
2017-12-23T01:18:00.483Z,0
2017-12-23T01:18:41.048Z,0
2017-12-23T01:19:21.614Z,0
2017-12-23T01:20:02.216Z,0
2017-12-23T01:20:42.823Z,0
2017-12-23T01:21:23.395Z,0
2017-12-23T01:22:04.007Z,0
2017-12-23T01:22:44.596Z,0
2017-12-23T01:23:25.163Z,0
2017-12-23T01:24:05.733Z,0
2017-12-23T01:24:46.316Z,0
2017-12-23T01:25:26.894Z,0
2017-12-23T01:26:07.477Z,0
2017-12-23T01:26:48.033Z,0
2017-12-23T01:27:28.605Z,0
2017-12-23T01:28:09.169Z,0
2017-12-23T01:28:49.742Z,0
2017-12-23T01:29:30.337Z,0
2017-12-23T01:30:10.914Z,0
2017-12-23T01:30:51.474Z,0
2017-12-23T01:31:32.054Z,0
2017-12-23T01:32:12.642Z,0
2017-12-23T01:32:53.205Z,0
2017-12-23T01:33:33.807Z,0
2017-12-23T01:34:14.366Z,0
2017-12-23T01:34:54.941Z,0
2017-12-23T01:35:35.532Z,0
2017-12-23T01:36:16.099Z,0
2017-12-23T01:36:56.674Z,0
2017-12-23T01:37:37.244Z,0
2017-12-23T01:38:17.803Z,0
2017-12-23T01:38:58.372Z,0
2017-12-23T01:39:38.975Z,0
2017-12-23T01:40:19.551Z,0
2017-12-23T01:41:00.123Z,0
2017-12-23T01:41:40.688Z,0
2017-12-23T01:42:21.276Z,0
2017-12-23T01:43:01.879Z,0
2017-12-23T01:43:42.509Z,0
2017-12-23T01:44:23.083Z,0
2017-12-23T01:45:03.664Z,0
2017-12-23T01:45:44.220Z,0
2017-12-23T01:46:24.783Z,0
2017-12-23T01:47:05.377Z,0
2017-12-23T01:47:45.940Z,0
2017-12-23T01:48:26.501Z,0
2017-12-23T01:49:07.079Z,0
2017-12-23T01:49:47.654Z,0
2017-12-23T01:50:28.256Z,0
2017-12-23T01:51:08.851Z,0
2017-12-23T01:51:49.419Z,0
2017-12-23T01:52:30.011Z,0
2017-12-23T01:53:10.587Z,0
2017-12-23T01:53:51.174Z,0
2017-12-23T01:54:31.752Z,0
2017-12-23T01:55:12.358Z,0
2017-12-23T01:55:52.927Z,0
2017-12-23T01:56:33.537Z,0
2017-12-23T01:57:14.098Z,0
2017-12-23T01:57:54.674Z,0
2017-12-23T01:58:35.286Z,0
2017-12-23T01:59:15.876Z,0
2017-12-23T01:59:56.462Z,0
2017-12-23T02:00:37.038Z,0
2017-12-23T02:01:17.630Z,0
2017-12-23T02:01:58.237Z,0
2017-12-23T02:02:38.812Z,0
2017-12-23T02:03:19.409Z,0
2017-12-23T02:03:59.987Z,0
2017-12-23T02:04:40.589Z,0
2017-12-23T02:05:21.177Z,0
2017-12-23T02:06:01.743Z,0
2017-12-23T02:06:42.317Z,0
2017-12-23T02:07:22.881Z,0
2017-12-23T02:08:03.437Z,0
2017-12-23T02:08:43.996Z,0
2017-12-23T02:09:24.557Z,0
2017-12-23T02:10:05.119Z,0
2017-12-23T02:10:45.695Z,0
2017-12-23T02:11:26.266Z,0
2017-12-23T02:12:06.843Z,0
2017-12-23T02:12:47.402Z,0
2017-12-23T02:13:27.963Z,0
2017-12-23T02:14:08.554Z,0
2017-12-23T02:14:49.127Z,0
2017-12-23T02:15:29.692Z,0
2017-12-23T02:16:10.250Z,0
2017-12-23T02:16:50.854Z,0
2017-12-23T02:17:31.435Z,0
2017-12-23T02:18:12.010Z,0
2017-12-23T02:18:52.582Z,0
2017-12-23T02:19:33.151Z,0
2017-12-23T02:20:13.756Z,0
2017-12-23T02:20:54.378Z,0
2017-12-23T02:21:34.956Z,0
2017-12-23T02:22:15.554Z,0
2017-12-23T02:22:56.170Z,0
2017-12-23T02:23:36.770Z,0
2017-12-23T02:24:17.363Z,0
2017-12-23T02:24:57.933Z,0
2017-12-23T02:25:38.528Z,0
2017-12-23T02:26:19.131Z,0
2017-12-23T02:26:59.715Z,0
2017-12-23T02:27:40.299Z,0
2017-12-23T02:28:20.866Z,0
2017-12-23T02:29:01.446Z,0
2017-12-23T02:29:42.025Z,0
2017-12-23T02:30:22.595Z,0
2017-12-23T02:31:03.171Z,0
2017-12-23T02:31:43.734Z,0
2017-12-23T02:32:24.302Z,0
2017-12-23T02:33:04.876Z,0
2017-12-23T02:33:45.444Z,0
2017-12-23T02:34:26.019Z,0
2017-12-23T02:35:06.574Z,0
2017-12-23T02:35:47.150Z,0
2017-12-23T02:36:27.717Z,0
2017-12-23T02:37:08.293Z,0
2017-12-23T02:37:48.860Z,0
2017-12-23T02:38:29.421Z,0
2017-12-23T02:39:09.997Z,0
2017-12-23T02:39:50.581Z,0
2017-12-23T02:40:31.135Z,0
2017-12-23T02:41:11.711Z,0
2017-12-23T02:41:52.292Z,0
2017-12-23T02:42:32.894Z,0
2017-12-23T02:43:13.471Z,0
2017-12-23T02:43:54.041Z,0
2017-12-23T02:44:34.615Z,0
2017-12-23T02:45:15.187Z,0
2017-12-23T02:45:55.777Z,0
2017-12-23T02:46:36.350Z,0
2017-12-23T02:47:16.924Z,0
2017-12-23T02:47:57.515Z,0
2017-12-23T02:48:38.067Z,0
2017-12-23T02:49:18.638Z,0
2017-12-23T02:49:59.225Z,0
2017-12-23T02:50:39.813Z,0
2017-12-23T02:51:20.398Z,0
2017-12-23T02:52:00.995Z,0
2017-12-23T02:52:41.590Z,0
2017-12-23T02:53:22.180Z,0
2017-12-23T02:54:02.741Z,0
2017-12-23T02:54:43.332Z,0
2017-12-23T02:55:23.906Z,0
2017-12-23T02:56:04.509Z,0
2017-12-23T02:56:45.098Z,0
2017-12-23T02:57:25.662Z,0
2017-12-23T02:58:06.238Z,0
2017-12-23T02:58:46.822Z,0
2017-12-23T02:59:27.425Z,0
2017-12-23T03:00:07.998Z,0
2017-12-23T03:00:48.597Z,0
2017-12-23T03:01:29.155Z,0
2017-12-23T03:02:09.715Z,0
2017-12-23T03:02:50.301Z,0
2017-12-23T03:03:30.884Z,0
2017-12-23T03:04:11.473Z,0
2017-12-23T03:04:52.035Z,0
2017-12-23T03:05:32.624Z,0
2017-12-23T03:06:13.204Z,0
2017-12-23T03:06:53.794Z,0
2017-12-23T03:07:34.343Z,0
2017-12-23T03:08:14.945Z,0
2017-12-23T03:08:55.532Z,0
2017-12-23T03:09:36.104Z,0
2017-12-23T03:10:16.690Z,0
2017-12-23T03:10:57.301Z,0
2017-12-23T03:11:37.880Z,0
2017-12-23T03:12:18.449Z,0
2017-12-23T03:12:59.030Z,0
2017-12-23T03:13:39.592Z,0
2017-12-23T03:14:20.194Z,0
2017-12-23T03:15:00.773Z,0
2017-12-23T03:15:41.351Z,0
2017-12-23T03:16:21.918Z,0
2017-12-23T03:17:02.515Z,0
2017-12-23T03:17:43.126Z,0
2017-12-23T03:18:23.720Z,0
2017-12-23T03:19:04.290Z,0
2017-12-23T03:19:44.875Z,0
2017-12-23T03:20:25.452Z,0
2017-12-23T03:21:06.041Z,0
2017-12-23T03:21:46.589Z,0
2017-12-23T03:22:27.151Z,0
2017-12-23T03:23:07.780Z,0
2017-12-23T03:23:48.308Z,0
2017-12-23T03:24:28.864Z,0
2017-12-23T03:25:09.434Z,0
2017-12-23T03:25:50.033Z,0
2017-12-23T03:26:30.636Z,0
2017-12-23T03:27:11.230Z,0
2017-12-23T03:27:51.828Z,0
2017-12-23T03:28:32.387Z,0
2017-12-23T03:29:12.955Z,0
2017-12-23T03:29:53.547Z,0
2017-12-23T03:30:34.147Z,0
2017-12-23T03:31:14.726Z,0
2017-12-23T03:31:55.316Z,0
2017-12-23T03:32:35.866Z,0
2017-12-23T03:33:16.469Z,0
2017-12-23T03:33:57.053Z,0
2017-12-23T03:34:37.648Z,0
2017-12-23T03:35:18.223Z,0
2017-12-23T03:35:58.789Z,0
2017-12-23T03:36:39.373Z,0
2017-12-23T03:37:19.969Z,0
2017-12-23T03:38:00.552Z,0
2017-12-23T03:38:41.151Z,0
2017-12-23T03:39:21.734Z,0
2017-12-23T03:40:02.369Z,0
2017-12-23T03:40:42.929Z,0
2017-12-23T03:41:23.491Z,0
2017-12-23T03:42:04.052Z,0
2017-12-23T03:42:44.658Z,0
2017-12-23T03:43:25.251Z,0
2017-12-23T03:44:05.869Z,0
2017-12-23T03:44:46.444Z,0
2017-12-23T03:45:27.065Z,0
2017-12-23T03:46:07.633Z,0
2017-12-23T03:46:48.195Z,0
2017-12-23T03:47:28.813Z,0
2017-12-23T03:48:09.393Z,0
2017-12-23T03:48:49.963Z,0
2017-12-23T03:49:30.549Z,0
2017-12-23T03:50:11.157Z,0
2017-12-23T03:50:51.753Z,0
2017-12-23T03:51:32.339Z,0
2017-12-23T03:52:12.899Z,0
2017-12-23T03:52:53.459Z,0
2017-12-23T03:53:34.017Z,0
2017-12-23T03:54:14.601Z,0
2017-12-23T03:54:55.157Z,0
2017-12-23T03:55:35.741Z,0
2017-12-23T03:56:16.301Z,0
2017-12-23T03:56:56.864Z,0
2017-12-23T03:57:37.446Z,0
2017-12-23T03:58:18.008Z,0
2017-12-23T03:58:58.603Z,0
2017-12-23T03:59:39.172Z,0
2017-12-23T04:00:19.755Z,0
2017-12-23T04:01:00.330Z,0
2017-12-23T04:01:40.905Z,0
2017-12-23T04:02:21.495Z,0
2017-12-23T04:03:02.089Z,0
2017-12-23T04:03:42.656Z,0
2017-12-23T04:04:23.230Z,0
2017-12-23T04:05:03.796Z,0
2017-12-23T04:05:44.361Z,0
2017-12-23T04:06:24.940Z,0
2017-12-23T04:07:05.528Z,0
2017-12-23T04:07:46.105Z,0
2017-12-23T04:08:26.670Z,0
2017-12-23T04:09:07.223Z,0
2017-12-23T04:09:47.788Z,0
2017-12-23T04:10:28.383Z,0
2017-12-23T04:11:08.958Z,0
2017-12-23T04:11:49.521Z,0
2017-12-23T04:12:30.092Z,0
2017-12-23T04:13:10.655Z,0
2017-12-23T04:13:51.233Z,0
2017-12-23T04:14:31.798Z,0
2017-12-23T04:15:12.354Z,0
2017-12-23T04:15:52.945Z,0
2017-12-23T04:16:33.567Z,0
2017-12-23T04:17:14.143Z,0
2017-12-23T04:17:54.724Z,0
2017-12-23T04:18:35.292Z,0
2017-12-23T04:19:15.889Z,0
2017-12-23T04:19:56.448Z,0
2017-12-23T04:20:37.043Z,0
2017-12-23T04:21:17.639Z,0
2017-12-23T04:21:58.206Z,0
2017-12-23T04:22:38.786Z,0
2017-12-23T04:23:19.389Z,0
2017-12-23T04:24:00.000Z,0
2017-12-23T04:24:40.571Z,0
2017-12-23T04:25:21.154Z,0
2017-12-23T04:26:01.725Z,0
2017-12-23T04:26:42.311Z,0
2017-12-23T04:27:22.895Z,0
2017-12-23T04:28:03.452Z,0
2017-12-23T04:28:44.020Z,0
2017-12-23T04:29:24.607Z,0
2017-12-23T04:30:05.204Z,0
2017-12-23T04:30:45.769Z,0
2017-12-23T04:31:26.359Z,0
2017-12-23T04:32:06.927Z,0
2017-12-23T04:32:47.501Z,0
2017-12-23T04:33:28.076Z,0
2017-12-23T04:34:08.666Z,0
2017-12-23T04:34:49.234Z,0
2017-12-23T04:35:29.822Z,0
2017-12-23T04:36:10.394Z,0
2017-12-23T04:36:50.972Z,0
2017-12-23T04:37:31.545Z,0
2017-12-23T04:38:12.129Z,0
2017-12-23T04:38:52.701Z,0
2017-12-23T04:39:33.266Z,0
2017-12-23T04:40:13.828Z,0
2017-12-23T04:40:54.396Z,0
2017-12-23T04:41:34.984Z,0
2017-12-23T04:42:15.554Z,0
2017-12-23T04:42:56.123Z,0
2017-12-23T04:43:36.705Z,0
2017-12-23T04:44:17.297Z,0
2017-12-23T04:44:57.854Z,0
2017-12-23T04:45:38.421Z,0
2017-12-23T04:46:19.014Z,0
2017-12-23T04:46:59.598Z,0
2017-12-23T04:47:40.176Z,0
2017-12-23T04:48:20.753Z,0
2017-12-23T04:49:01.388Z,0
2017-12-23T04:49:41.983Z,0
2017-12-23T04:50:22.564Z,0
2017-12-23T04:51:03.160Z,0
2017-12-23T04:51:43.708Z,0
2017-12-23T04:52:24.303Z,0
2017-12-23T04:53:04.872Z,0
2017-12-23T04:53:45.442Z,0
2017-12-23T04:54:26.037Z,0
2017-12-23T04:55:06.625Z,0
2017-12-23T04:55:47.208Z,0
2017-12-23T04:56:27.791Z,0
2017-12-23T04:57:08.360Z,0
2017-12-23T04:57:48.934Z,0
2017-12-23T04:58:29.520Z,0
2017-12-23T04:59:10.100Z,0
2017-12-23T04:59:50.688Z,0
2017-12-23T05:00:31.250Z,0
2017-12-23T05:01:11.818Z,0
2017-12-23T05:01:52.406Z,0
2017-12-23T05:02:33.007Z,0
2017-12-23T05:03:13.618Z,0
2017-12-23T05:03:54.201Z,0
2017-12-23T05:04:34.801Z,0
2017-12-23T05:05:15.362Z,0
2017-12-23T05:05:55.964Z,0
2017-12-23T05:06:36.556Z,0
2017-12-23T05:07:17.118Z,0
2017-12-23T05:07:57.734Z,0
2017-12-23T05:08:38.332Z,0
2017-12-23T05:09:18.884Z,0
2017-12-23T05:09:59.466Z,0
2017-12-23T05:10:40.067Z,0
2017-12-23T05:11:20.636Z,0
2017-12-23T05:12:01.223Z,0
2017-12-23T05:12:41.793Z,0
2017-12-23T05:13:22.377Z,0
2017-12-23T05:14:02.974Z,0
2017-12-23T05:14:43.595Z,0
2017-12-23T05:15:24.169Z,0
2017-12-23T05:16:04.752Z,0
2017-12-23T05:16:45.340Z,0
2017-12-23T05:17:25.997Z,0
2017-12-23T05:18:06.599Z,0
2017-12-23T05:18:47.171Z,0
2017-12-23T05:19:27.747Z,0
2017-12-23T05:20:08.316Z,0
2017-12-23T05:20:48.896Z,0
2017-12-23T05:21:29.497Z,0
2017-12-23T05:22:10.106Z,0
2017-12-23T05:22:50.721Z,0
2017-12-23T05:23:31.294Z,0
2017-12-23T05:24:11.861Z,0
2017-12-23T05:24:52.435Z,0
2017-12-23T05:25:33.016Z,0
2017-12-23T05:26:13.582Z,0
2017-12-23T05:26:54.153Z,4
2017-12-23T05:27:34.748Z,4
2017-12-23T05:28:15.330Z,4
2017-12-23T05:28:55.940Z,4
2017-12-23T05:29:36.519Z,4
2017-12-23T05:30:17.108Z,4
2017-12-23T05:30:57.705Z,4
2017-12-23T05:31:38.293Z,4
2017-12-23T05:32:18.870Z,4
2017-12-23T05:32:59.462Z,4
2017-12-23T05:33:40.047Z,4
2017-12-23T05:34:20.621Z,4
2017-12-23T05:35:01.182Z,4
2017-12-23T05:35:41.767Z,4
2017-12-23T05:36:22.339Z,4
2017-12-23T05:37:02.907Z,4
2017-12-23T05:37:43.478Z,4
2017-12-23T05:38:24.060Z,4
2017-12-23T05:39:04.643Z,4
2017-12-23T05:39:45.214Z,4
2017-12-23T05:40:25.859Z,4
2017-12-23T05:41:06.370Z,4
2017-12-23T05:41:46.953Z,4
2017-12-23T05:42:27.506Z,4
2017-12-23T05:43:08.079Z,4
2017-12-23T05:43:48.717Z,4
2017-12-23T05:44:29.279Z,4
2017-12-23T05:45:09.827Z,4
2017-12-23T05:45:50.402Z,4
2017-12-23T05:46:30.989Z,4
2017-12-23T05:47:11.538Z,4
2017-12-23T05:47:52.120Z,4
2017-12-23T05:48:32.752Z,4
2017-12-23T05:49:13.324Z,4
2017-12-23T05:49:53.899Z,4
2017-12-23T05:50:34.491Z,4
2017-12-23T05:51:15.059Z,4
2017-12-23T05:51:55.640Z,4
2017-12-23T05:52:36.212Z,4
2017-12-23T05:53:16.774Z,4
2017-12-23T05:53:57.343Z,4
2017-12-23T05:54:37.912Z,4
2017-12-23T05:55:18.488Z,4
2017-12-23T05:55:59.071Z,4
2017-12-23T05:56:39.647Z,4
2017-12-23T05:57:20.228Z,4
2017-12-23T05:58:00.809Z,4
2017-12-23T05:58:41.369Z,4
2017-12-23T05:59:21.958Z,4
2017-12-23T06:00:02.528Z,4
2017-12-23T06:00:43.115Z,4
2017-12-23T06:01:23.669Z,4
2017-12-23T06:02:04.252Z,4
2017-12-23T06:02:44.830Z,4
2017-12-23T06:03:25.416Z,4
2017-12-23T06:04:05.993Z,4
2017-12-23T06:04:46.577Z,4
2017-12-23T06:05:27.153Z,4
2017-12-23T06:06:07.740Z,4
2017-12-23T06:06:48.334Z,4
2017-12-23T06:07:28.916Z,4
2017-12-23T06:08:09.488Z,4
2017-12-23T06:08:50.081Z,4
2017-12-23T06:09:30.641Z,4
2017-12-23T06:10:11.243Z,4
2017-12-23T06:10:51.840Z,4
2017-12-23T06:11:32.400Z,4
2017-12-23T06:12:12.987Z,4
2017-12-23T06:12:53.558Z,4
2017-12-23T06:13:34.148Z,0
2017-12-23T06:14:14.739Z,0
2017-12-23T06:14:55.300Z,0
2017-12-23T06:15:35.872Z,0
2017-12-23T06:16:16.438Z,0
2017-12-23T06:16:57.035Z,0
2017-12-23T06:17:37.620Z,4
2017-12-23T06:18:18.197Z,4
2017-12-23T06:18:58.767Z,4
2017-12-23T06:19:39.380Z,4
2017-12-23T06:20:19.940Z,4
2017-12-23T06:21:00.519Z,4
2017-12-23T06:21:41.094Z,4
2017-12-23T06:22:21.693Z,4
2017-12-23T06:23:02.261Z,4
2017-12-23T06:23:42.860Z,4
2017-12-23T06:24:23.431Z,4
2017-12-23T06:25:04.000Z,4
2017-12-23T06:25:44.598Z,4
2017-12-23T06:26:25.181Z,4
2017-12-23T06:27:05.754Z,4
2017-12-23T06:27:46.326Z,4
2017-12-23T06:28:26.879Z,4
2017-12-23T06:29:07.469Z,4
2017-12-23T06:29:48.057Z,4
2017-12-23T06:30:28.627Z,4
2017-12-23T06:31:09.204Z,4
2017-12-23T06:31:49.779Z,4
2017-12-23T06:32:30.345Z,4
2017-12-23T06:33:10.913Z,4
2017-12-23T06:33:51.508Z,4
2017-12-23T06:34:32.087Z,4
2017-12-23T06:35:12.682Z,4
2017-12-23T06:35:53.242Z,4
2017-12-23T06:36:33.811Z,4
2017-12-23T06:37:14.376Z,4
2017-12-23T06:37:54.989Z,4
2017-12-23T06:38:35.547Z,4
2017-12-23T06:39:16.123Z,4
2017-12-23T06:39:56.721Z,4
2017-12-23T06:40:37.318Z,4
2017-12-23T06:41:17.888Z,0
2017-12-23T06:41:58.476Z,4
2017-12-23T06:42:39.031Z,0
2017-12-23T06:43:19.610Z,0
2017-12-23T06:44:00.180Z,0
2017-12-23T06:44:40.745Z,0
2017-12-23T06:45:21.314Z,0
2017-12-23T06:46:01.887Z,0
2017-12-23T06:46:42.454Z,0
2017-12-23T06:47:23.032Z,0
2017-12-23T06:48:03.596Z,0
2017-12-23T06:48:44.174Z,0
2017-12-23T06:49:24.756Z,0
2017-12-23T06:50:05.358Z,0
2017-12-23T06:50:45.920Z,4
2017-12-23T06:51:26.561Z,4
2017-12-23T06:52:07.124Z,4
2017-12-23T06:52:47.697Z,4
2017-12-23T06:53:28.268Z,4
2017-12-23T06:54:08.850Z,4
2017-12-23T06:54:49.398Z,4
2017-12-23T06:55:29.952Z,4
2017-12-23T06:56:10.537Z,4
2017-12-23T06:56:51.102Z,4
2017-12-23T06:57:31.672Z,4
2017-12-23T06:58:12.230Z,4
2017-12-23T06:58:52.787Z,4
2017-12-23T06:59:33.354Z,8
2017-12-23T07:00:13.920Z,4
2017-12-23T07:00:54.507Z,4
2017-12-23T07:01:35.079Z,4
2017-12-23T07:02:15.638Z,4
2017-12-23T07:02:56.212Z,4
2017-12-23T07:03:36.789Z,8
2017-12-23T07:04:17.365Z,8
2017-12-23T07:04:57.953Z,4
2017-12-23T07:05:38.530Z,8
2017-12-23T07:06:19.113Z,8
2017-12-23T07:06:59.696Z,8
2017-12-23T07:07:40.305Z,8
2017-12-23T07:08:20.868Z,8
2017-12-23T07:09:01.476Z,8
2017-12-23T07:09:42.087Z,8
2017-12-23T07:10:22.670Z,8
2017-12-23T07:11:03.225Z,8
2017-12-23T07:11:43.825Z,12
2017-12-23T07:12:24.377Z,8
2017-12-23T07:13:04.945Z,12
2017-12-23T07:13:45.540Z,12
2017-12-23T07:14:26.141Z,16
2017-12-23T07:15:06.725Z,12
2017-12-23T07:15:47.294Z,12
2017-12-23T07:16:27.886Z,16
2017-12-23T07:17:08.451Z,16
2017-12-23T07:17:49.024Z,12
2017-12-23T07:18:29.592Z,16
2017-12-23T07:19:10.172Z,20
2017-12-23T07:19:50.785Z,16
2017-12-23T07:20:31.351Z,16
2017-12-23T07:21:11.942Z,16
2017-12-23T07:21:52.535Z,16
2017-12-23T07:22:33.094Z,24
2017-12-23T07:23:13.684Z,20
2017-12-23T07:23:54.247Z,24
2017-12-23T07:24:34.817Z,24
2017-12-23T07:25:15.391Z,28
2017-12-23T07:25:55.957Z,28
2017-12-23T07:26:36.528Z,24
2017-12-23T07:27:17.100Z,28
2017-12-23T07:27:57.673Z,28
2017-12-23T07:28:38.247Z,32
2017-12-23T07:29:18.831Z,32
2017-12-23T07:29:59.404Z,36
2017-12-23T07:30:39.976Z,36
2017-12-23T07:31:20.565Z,36
2017-12-23T07:32:01.155Z,40
2017-12-23T07:32:41.750Z,40
2017-12-23T07:33:22.326Z,40
2017-12-23T07:34:02.878Z,48
2017-12-23T07:34:43.463Z,44
2017-12-23T07:35:24.027Z,48
2017-12-23T07:36:04.621Z,48
2017-12-23T07:36:45.195Z,44
2017-12-23T07:37:25.771Z,48
2017-12-23T07:38:06.340Z,52
2017-12-23T07:38:46.906Z,56
2017-12-23T07:39:27.466Z,56
2017-12-23T07:40:08.058Z,60
2017-12-23T07:40:48.655Z,60
2017-12-23T07:41:29.212Z,68
2017-12-23T07:42:09.795Z,64
2017-12-23T07:42:50.374Z,68
2017-12-23T07:43:30.962Z,68
2017-12-23T07:44:11.551Z,76
2017-12-23T07:44:52.110Z,84
2017-12-23T07:45:32.681Z,76
2017-12-23T07:46:13.289Z,76
2017-12-23T07:46:53.866Z,76
2017-12-23T07:47:34.430Z,76
2017-12-23T07:48:15.019Z,76
2017-12-23T07:48:55.598Z,72
2017-12-23T07:49:36.195Z,72
2017-12-23T07:50:16.807Z,72
2017-12-23T07:50:57.395Z,72
2017-12-23T07:51:37.967Z,76
2017-12-23T07:52:18.554Z,80
2017-12-23T07:52:59.127Z,80
2017-12-23T07:53:39.695Z,76
2017-12-23T07:54:20.301Z,76
2017-12-23T07:55:00.894Z,84
2017-12-23T07:55:41.491Z,84
2017-12-23T07:56:22.060Z,80
2017-12-23T07:57:02.620Z,84
2017-12-23T07:57:43.203Z,92
2017-12-23T07:58:23.793Z,96
2017-12-23T07:59:04.346Z,96
2017-12-23T07:59:44.909Z,96
2017-12-23T08:00:25.468Z,100
2017-12-23T08:01:06.030Z,104
2017-12-23T08:01:46.609Z,112
2017-12-23T08:02:27.205Z,112
2017-12-23T08:03:07.787Z,112
2017-12-23T08:03:48.364Z,112
2017-12-23T08:04:28.952Z,108
2017-12-23T08:05:09.524Z,108
2017-12-23T08:05:50.098Z,108
2017-12-23T08:06:30.672Z,108
2017-12-23T08:07:11.279Z,108
2017-12-23T08:07:51.859Z,112
2017-12-23T08:08:32.482Z,116
2017-12-23T08:09:13.056Z,120
2017-12-23T08:09:53.624Z,128
2017-12-23T08:10:34.198Z,128
2017-12-23T08:11:14.773Z,128
2017-12-23T08:11:55.339Z,124
2017-12-23T08:12:35.909Z,120
2017-12-23T08:13:16.508Z,132
2017-12-23T08:13:57.103Z,132
2017-12-23T08:14:37.729Z,132
2017-12-23T08:15:18.311Z,132
2017-12-23T08:15:58.919Z,128
2017-12-23T08:16:39.507Z,136
2017-12-23T08:17:20.081Z,144
2017-12-23T08:18:00.670Z,148
2017-12-23T08:18:41.249Z,144
2017-12-23T08:19:21.830Z,140
2017-12-23T08:20:02.419Z,144
2017-12-23T08:20:42.987Z,140
2017-12-23T08:21:23.560Z,144
2017-12-23T08:22:04.146Z,152
2017-12-23T08:22:44.736Z,148
2017-12-23T08:23:25.316Z,152
2017-12-23T08:24:05.899Z,144
2017-12-23T08:24:46.468Z,140
2017-12-23T08:25:27.045Z,136
2017-12-23T08:26:07.617Z,132
2017-12-23T08:26:48.189Z,124
2017-12-23T08:27:28.784Z,124
2017-12-23T08:28:09.447Z,124
2017-12-23T08:28:49.968Z,128
2017-12-23T08:29:30.518Z,132
2017-12-23T08:30:11.088Z,136
2017-12-23T08:30:51.702Z,152
2017-12-23T08:31:32.274Z,152
2017-12-23T08:32:12.853Z,152
2017-12-23T08:32:53.426Z,148
2017-12-23T08:33:33.988Z,156
2017-12-23T08:34:14.554Z,160
2017-12-23T08:34:55.137Z,164
2017-12-23T08:35:35.707Z,172
2017-12-23T08:36:16.275Z,180
2017-12-23T08:36:56.858Z,192
2017-12-23T08:37:37.421Z,192
2017-12-23T08:38:17.993Z,204
2017-12-23T08:38:58.569Z,212
2017-12-23T08:39:39.132Z,232
2017-12-23T08:40:19.725Z,220
2017-12-23T08:41:00.299Z,212
2017-12-23T08:41:40.881Z,216
2017-12-23T08:42:21.468Z,216
2017-12-23T08:43:02.064Z,212
2017-12-23T08:43:42.684Z,208
2017-12-23T08:44:23.269Z,212
2017-12-23T08:45:03.852Z,204
2017-12-23T08:45:44.458Z,200
2017-12-23T08:46:25.042Z,200
2017-12-23T08:47:05.626Z,212
2017-12-23T08:47:46.191Z,212
2017-12-23T08:48:26.763Z,212
2017-12-23T08:49:07.332Z,208
2017-12-23T08:49:47.904Z,204
2017-12-23T08:50:28.470Z,212
2017-12-23T08:51:09.097Z,208
2017-12-23T08:51:49.663Z,208
2017-12-23T08:52:30.261Z,204
2017-12-23T08:53:10.835Z,212
2017-12-23T08:53:51.391Z,224
2017-12-23T08:54:31.949Z,224
2017-12-23T08:55:12.548Z,216
2017-12-23T08:55:53.131Z,220
2017-12-23T08:56:33.693Z,216
2017-12-23T08:57:14.273Z,212
2017-12-23T08:57:54.844Z,224
2017-12-23T08:58:35.429Z,240
2017-12-23T08:59:15.998Z,236
2017-12-23T08:59:56.584Z,236
2017-12-23T09:00:37.169Z,248
2017-12-23T09:01:17.729Z,248
2017-12-23T09:01:58.360Z,244
2017-12-23T09:02:38.958Z,240
2017-12-23T09:03:19.564Z,224
2017-12-23T09:04:00.152Z,200
2017-12-23T09:04:40.717Z,176
2017-12-23T09:05:21.321Z,176
2017-12-23T09:06:01.910Z,184
2017-12-23T09:06:42.508Z,160
2017-12-23T09:07:23.077Z,148
2017-12-23T09:08:03.667Z,148
2017-12-23T09:08:44.243Z,156
2017-12-23T09:09:24.824Z,160
2017-12-23T09:10:05.415Z,156
2017-12-23T09:10:45.975Z,156
2017-12-23T09:11:26.552Z,168
2017-12-23T09:12:07.146Z,168
2017-12-23T09:12:47.751Z,164
2017-12-23T09:13:28.341Z,180
2017-12-23T09:14:08.915Z,184
2017-12-23T09:14:49.482Z,196
2017-12-23T09:15:30.054Z,204
2017-12-23T09:16:10.654Z,212
2017-12-23T09:16:51.242Z,220
2017-12-23T09:17:31.883Z,224
2017-12-23T09:18:12.449Z,248
2017-12-23T09:18:53.048Z,288
2017-12-23T09:19:33.655Z,300
2017-12-23T09:20:14.231Z,320
2017-12-23T09:20:54.806Z,300
2017-12-23T09:21:35.394Z,284
2017-12-23T09:22:16.002Z,276
2017-12-23T09:22:56.583Z,284
2017-12-23T09:23:37.150Z,288
2017-12-23T09:24:17.746Z,288
2017-12-23T09:24:58.293Z,284
2017-12-23T09:25:38.865Z,288
2017-12-23T09:26:19.450Z,284
2017-12-23T09:27:00.026Z,268
2017-12-23T09:27:40.618Z,268
2017-12-23T09:28:21.184Z,272
2017-12-23T09:29:01.771Z,268
2017-12-23T09:29:42.350Z,272
2017-12-23T09:30:22.956Z,268
2017-12-23T09:31:03.522Z,268
2017-12-23T09:31:44.104Z,268
2017-12-23T09:32:24.687Z,276
2017-12-23T09:33:05.283Z,272
2017-12-23T09:33:45.859Z,276
2017-12-23T09:34:26.432Z,288
2017-12-23T09:35:07.012Z,276
2017-12-23T09:35:47.599Z,280
2017-12-23T09:36:28.218Z,280
2017-12-23T09:37:08.797Z,280
2017-12-23T09:37:49.386Z,288
2017-12-23T09:38:29.970Z,292
2017-12-23T09:39:10.566Z,288
2017-12-23T09:39:51.161Z,280
2017-12-23T09:40:31.736Z,272
2017-12-23T09:41:12.316Z,280
2017-12-23T09:41:52.895Z,292
2017-12-23T09:42:33.488Z,304
2017-12-23T09:43:14.063Z,304
2017-12-23T09:43:54.627Z,308
2017-12-23T09:44:35.195Z,304
2017-12-23T09:45:15.790Z,280
2017-12-23T09:45:56.384Z,280
2017-12-23T09:46:36.959Z,276
2017-12-23T09:47:17.551Z,292
2017-12-23T09:47:58.118Z,292
2017-12-23T09:48:38.705Z,272
2017-12-23T09:49:19.288Z,260
2017-12-23T09:49:59.884Z,260